sensor_id;sensor_type;location;lat;lon;timestamp;P1;durP1;ratioP1;P2;durP2;ratioP2
26820;SDS011;37186;51.394;5.454;2022-11-20T00:01:50;3.60;;;3.50;;
26820;SDS011;37186;51.394;5.454;2022-11-20T00:04:50;3.90;;;3.80;;
26820;SDS011;37186;51.394;5.454;2022-11-20T00:07:51;3.60;;;3.50;;
26820;SDS011;37186;51.394;5.454;2022-11-20T00:10:51;3.40;;;3.30;;
26820;SDS011;37186;51.394;5.454;2022-11-20T00:13:53;3.60;;;3.50;;
26820;SDS011;37186;51.394;5.454;2022-11-20T00:16:55;3.60;;;3.50;;
26820;SDS011;37186;51.394;5.454;2022-11-20T00:19:55;3.53;;;3.43;;
26820;SDS011;37186;51.394;5.454;2022-11-20T00:22:56;3.40;;;3.30;;
26820;SDS011;37186;51.394;5.454;2022-11-20T00:25:56;3.30;;;3.20;;
26820;SDS011;37186;51.394;5.454;2022-11-20T00:29:00;3.40;;;3.30;;
26820;SDS011;37186;51.394;5.454;2022-11-20T00:32:01;3.40;;;3.30;;
26820;SDS011;37186;51.394;5.454;2022-11-20T00:35:02;3.60;;;3.50;;
26820;SDS011;37186;51.394;5.454;2022-11-20T00:38:02;3.30;;;3.20;;
26820;SDS011;37186;51.394;5.454;2022-11-20T00:41:04;3.40;;;3.30;;
26820;SDS011;37186;51.394;5.454;2022-11-20T00:44:06;3.50;;;3.40;;
26820;SDS011;37186;51.394;5.454;2022-11-20T00:47:06;3.40;;;3.30;;
26820;SDS011;37186;51.394;5.454;2022-11-20T00:50:07;3.60;;;3.50;;
26820;SDS011;37186;51.394;5.454;2022-11-20T00:53:08;3.30;;;3.20;;
26820;SDS011;37186;51.394;5.454;2022-11-20T00:56:10;3.50;;;3.40;;
26820;SDS011;37186;51.394;5.454;2022-11-20T00:59:12;3.33;;;3.23;;
26820;SDS011;37186;51.394;5.454;2022-11-20T01:02:13;3.57;;;3.47;;
26820;SDS011;37186;51.394;5.454;2022-11-20T01:05:15;3.20;;;3.10;;
26820;SDS011;37186;51.394;5.454;2022-11-20T01:08:15;3.17;;;3.07;;
26820;SDS011;37186;51.394;5.454;2022-11-20T01:11:17;3.50;;;3.40;;
26820;SDS011;37186;51.394;5.454;2022-11-20T01:14:19;3.40;;;3.30;;
26820;SDS011;37186;51.394;5.454;2022-11-20T01:17:20;3.50;;;3.40;;
26820;SDS011;37186;51.394;5.454;2022-11-20T01:20:20;3.30;;;3.20;;
26820;SDS011;37186;51.394;5.454;2022-11-20T01:23:21;3.30;;;3.20;;
26820;SDS011;37186;51.394;5.454;2022-11-20T01:26:23;3.30;;;3.20;;
26820;SDS011;37186;51.394;5.454;2022-11-20T01:29:25;3.30;;;3.20;;
26820;SDS011;37186;51.394;5.454;2022-11-20T01:32:26;3.30;;;3.20;;
26820;SDS011;37186;51.394;5.454;2022-11-20T01:35:26;3.30;;;3.20;;
26820;SDS011;37186;51.394;5.454;2022-11-20T01:38:27;3.50;;;3.40;;
26820;SDS011;37186;51.394;5.454;2022-11-20T01:41:28;3.20;;;3.10;;
26820;SDS011;37186;51.394;5.454;2022-11-20T01:44:50;3.40;;;3.30;;
26820;SDS011;37186;51.394;5.454;2022-11-20T01:47:50;3.20;;;3.10;;
26820;SDS011;37186;51.394;5.454;2022-11-20T01:50:51;3.60;;;3.50;;
26820;SDS011;37186;51.394;5.454;2022-11-20T01:53:53;3.63;;;3.53;;
26820;SDS011;37186;51.394;5.454;2022-11-20T01:56:57;3.40;;;3.30;;
26820;SDS011;37186;51.394;5.454;2022-11-20T02:00:00;3.30;;;3.20;;
26820;SDS011;37186;51.394;5.454;2022-11-20T02:03:07;3.50;;;3.40;;
26820;SDS011;37186;51.394;5.454;2022-11-20T02:06:24;3.40;;;3.30;;
26820;SDS011;37186;51.394;5.454;2022-11-20T02:09:35;3.20;;;3.10;;
26820;SDS011;37186;51.394;5.454;2022-11-20T02:12:35;3.50;;;3.40;;
26820;SDS011;37186;51.394;5.454;2022-11-20T02:16:02;3.40;;;3.30;;
26820;SDS011;37186;51.394;5.454;2022-11-20T02:19:04;3.40;;;3.30;;
26820;SDS011;37186;51.394;5.454;2022-11-20T02:22:27;3.37;;;3.27;;
26820;SDS011;37186;51.394;5.454;2022-11-20T02:25:34;3.40;;;3.30;;
26820;SDS011;37186;51.394;5.454;2022-11-20T02:28:36;3.67;;;3.57;;
26820;SDS011;37186;51.394;5.454;2022-11-20T02:31:38;3.53;;;3.43;;
26820;SDS011;37186;51.394;5.454;2022-11-20T02:34:42;3.43;;;3.33;;
26820;SDS011;37186;51.394;5.454;2022-11-20T02:37:42;3.70;;;3.60;;
26820;SDS011;37186;51.394;5.454;2022-11-20T02:40:44;3.80;;;3.70;;
26820;SDS011;37186;51.394;5.454;2022-11-20T02:43:45;3.80;;;3.70;;
26820;SDS011;37186;51.394;5.454;2022-11-20T02:46:46;3.80;;;3.70;;
26820;SDS011;37186;51.394;5.454;2022-11-20T02:49:46;3.73;;;3.63;;
26820;SDS011;37186;51.394;5.454;2022-11-20T02:52:47;3.70;;;3.60;;
26820;SDS011;37186;51.394;5.454;2022-11-20T02:55:47;3.57;;;3.47;;
26820;SDS011;37186;51.394;5.454;2022-11-20T02:58:48;3.60;;;3.50;;
26820;SDS011;37186;51.394;5.454;2022-11-20T03:01:48;3.80;;;3.70;;
26820;SDS011;37186;51.394;5.454;2022-11-20T03:04:49;3.83;;;3.73;;
26820;SDS011;37186;51.394;5.454;2022-11-20T03:07:49;3.80;;;3.70;;
26820;SDS011;37186;51.394;5.454;2022-11-20T03:10:50;3.90;;;3.80;;
26820;SDS011;37186;51.394;5.454;2022-11-20T03:13:50;3.70;;;3.60;;
26820;SDS011;37186;51.394;5.454;2022-11-20T03:16:51;3.70;;;3.60;;
26820;SDS011;37186;51.394;5.454;2022-11-20T03:19:52;3.60;;;3.50;;
26820;SDS011;37186;51.394;5.454;2022-11-20T03:22:53;3.73;;;3.63;;
26820;SDS011;37186;51.394;5.454;2022-11-20T03:25:54;3.70;;;3.60;;
26820;SDS011;37186;51.394;5.454;2022-11-20T03:28:56;3.90;;;3.80;;
26820;SDS011;37186;51.394;5.454;2022-11-20T03:31:58;3.60;;;3.50;;
26820;SDS011;37186;51.394;5.454;2022-11-20T03:34:59;3.70;;;3.60;;
26820;SDS011;37186;51.394;5.454;2022-11-20T03:37:59;3.47;;;3.37;;
26820;SDS011;37186;51.394;5.454;2022-11-20T03:41:00;3.50;;;3.40;;
26820;SDS011;37186;51.394;5.454;2022-11-20T03:44:03;3.70;;;3.60;;
26820;SDS011;37186;51.394;5.454;2022-11-20T03:47:05;3.70;;;3.60;;
26820;SDS011;37186;51.394;5.454;2022-11-20T03:50:06;3.57;;;3.47;;
26820;SDS011;37186;51.394;5.454;2022-11-20T03:53:07;3.63;;;3.53;;
26820;SDS011;37186;51.394;5.454;2022-11-20T03:56:08;3.60;;;3.50;;
26820;SDS011;37186;51.394;5.454;2022-11-20T03:59:09;3.50;;;3.40;;
26820;SDS011;37186;51.394;5.454;2022-11-20T04:02:10;3.60;;;3.50;;
26820;SDS011;37186;51.394;5.454;2022-11-20T04:05:11;3.63;;;3.53;;
26820;SDS011;37186;51.394;5.454;2022-11-20T04:08:11;3.80;;;3.70;;
26820;SDS011;37186;51.394;5.454;2022-11-20T04:11:13;3.70;;;3.60;;
26820;SDS011;37186;51.394;5.454;2022-11-20T04:14:15;3.87;;;3.77;;
26820;SDS011;37186;51.394;5.454;2022-11-20T04:17:16;3.50;;;3.40;;
26820;SDS011;37186;51.394;5.454;2022-11-20T04:20:17;3.63;;;3.53;;
26820;SDS011;37186;51.394;5.454;2022-11-20T04:23:17;3.50;;;3.40;;
26820;SDS011;37186;51.394;5.454;2022-11-20T04:26:18;3.73;;;3.63;;
26820;SDS011;37186;51.394;5.454;2022-11-20T04:29:19;3.80;;;3.70;;
26820;SDS011;37186;51.394;5.454;2022-11-20T04:32:19;3.60;;;3.50;;
26820;SDS011;37186;51.394;5.454;2022-11-20T04:35:20;3.60;;;3.50;;
26820;SDS011;37186;51.394;5.454;2022-11-20T04:38:20;3.70;;;3.60;;
26820;SDS011;37186;51.394;5.454;2022-11-20T04:41:21;3.70;;;3.60;;
26820;SDS011;37186;51.394;5.454;2022-11-20T04:44:23;3.30;;;3.20;;
26820;SDS011;37186;51.394;5.454;2022-11-20T04:47:24;3.80;;;3.70;;
26820;SDS011;37186;51.394;5.454;2022-11-20T04:50:24;3.60;;;3.50;;
26820;SDS011;37186;51.394;5.454;2022-11-20T04:53:26;3.50;;;3.40;;
26820;SDS011;37186;51.394;5.454;2022-11-20T04:56:26;3.53;;;3.43;;
26820;SDS011;37186;51.394;5.454;2022-11-20T04:59:27;3.40;;;3.30;;
26820;SDS011;37186;51.394;5.454;2022-11-20T05:02:27;3.50;;;3.40;;
26820;SDS011;37186;51.394;5.454;2022-11-20T05:05:30;3.80;;;3.70;;
26820;SDS011;37186;51.394;5.454;2022-11-20T05:08:31;3.60;;;3.50;;
26820;SDS011;37186;51.394;5.454;2022-11-20T05:11:31;3.60;;;3.50;;
26820;SDS011;37186;51.394;5.454;2022-11-20T05:14:32;3.63;;;3.53;;
26820;SDS011;37186;51.394;5.454;2022-11-20T05:17:32;3.63;;;3.53;;
26820;SDS011;37186;51.394;5.454;2022-11-20T05:20:33;3.40;;;3.30;;
26820;SDS011;37186;51.394;5.454;2022-11-20T05:23:36;3.40;;;3.30;;
26820;SDS011;37186;51.394;5.454;2022-11-20T05:26:37;3.40;;;3.30;;
26820;SDS011;37186;51.394;5.454;2022-11-20T05:29:37;3.60;;;3.50;;
26820;SDS011;37186;51.394;5.454;2022-11-20T05:32:38;3.50;;;3.40;;
26820;SDS011;37186;51.394;5.454;2022-11-20T05:35:38;3.70;;;3.60;;
26820;SDS011;37186;51.394;5.454;2022-11-20T05:38:39;3.60;;;3.50;;
26820;SDS011;37186;51.394;5.454;2022-11-20T05:41:40;3.60;;;3.50;;
26820;SDS011;37186;51.394;5.454;2022-11-20T05:44:40;4.00;;;3.90;;
26820;SDS011;37186;51.394;5.454;2022-11-20T05:47:41;3.70;;;3.60;;
26820;SDS011;37186;51.394;5.454;2022-11-20T05:50:41;3.40;;;3.30;;
26820;SDS011;37186;51.394;5.454;2022-11-20T05:53:42;3.60;;;3.50;;
26820;SDS011;37186;51.394;5.454;2022-11-20T05:56:43;3.70;;;3.60;;
26820;SDS011;37186;51.394;5.454;2022-11-20T05:59:43;3.60;;;3.50;;
26820;SDS011;37186;51.394;5.454;2022-11-20T06:02:44;3.50;;;3.40;;
26820;SDS011;37186;51.394;5.454;2022-11-20T06:05:44;3.90;;;3.80;;
26820;SDS011;37186;51.394;5.454;2022-11-20T06:08:45;3.80;;;3.70;;
26820;SDS011;37186;51.394;5.454;2022-11-20T06:11:45;3.50;;;3.40;;
26820;SDS011;37186;51.394;5.454;2022-11-20T06:14:46;3.80;;;3.70;;
26820;SDS011;37186;51.394;5.454;2022-11-20T06:17:46;3.90;;;3.80;;
26820;SDS011;37186;51.394;5.454;2022-11-20T06:20:47;3.80;;;3.70;;
26820;SDS011;37186;51.394;5.454;2022-11-20T06:23:48;3.50;;;3.40;;
26820;SDS011;37186;51.394;5.454;2022-11-20T06:26:49;3.70;;;3.60;;
26820;SDS011;37186;51.394;5.454;2022-11-20T06:29:50;3.40;;;3.30;;
26820;SDS011;37186;51.394;5.454;2022-11-20T06:32:50;3.50;;;3.40;;
26820;SDS011;37186;51.394;5.454;2022-11-20T06:35:51;3.70;;;3.60;;
26820;SDS011;37186;51.394;5.454;2022-11-20T06:38:52;3.57;;;3.47;;
26820;SDS011;37186;51.394;5.454;2022-11-20T06:41:52;3.53;;;3.43;;
26820;SDS011;37186;51.394;5.454;2022-11-20T06:44:53;3.73;;;3.63;;
26820;SDS011;37186;51.394;5.454;2022-11-20T06:47:53;3.60;;;3.50;;
26820;SDS011;37186;51.394;5.454;2022-11-20T06:50:56;3.67;;;3.57;;
26820;SDS011;37186;51.394;5.454;2022-11-20T06:53:58;3.40;;;3.30;;
26820;SDS011;37186;51.394;5.454;2022-11-20T06:56:58;3.63;;;3.53;;
26820;SDS011;37186;51.394;5.454;2022-11-20T06:59:59;3.47;;;3.37;;
26820;SDS011;37186;51.394;5.454;2022-11-20T07:03:02;3.50;;;3.40;;
26820;SDS011;37186;51.394;5.454;2022-11-20T07:06:06;3.70;;;3.60;;
26820;SDS011;37186;51.394;5.454;2022-11-20T07:09:08;3.43;;;3.33;;
26820;SDS011;37186;51.394;5.454;2022-11-20T07:12:09;3.60;;;3.50;;
26820;SDS011;37186;51.394;5.454;2022-11-20T07:15:09;3.37;;;3.27;;
26820;SDS011;37186;51.394;5.454;2022-11-20T07:18:10;3.50;;;3.40;;
26820;SDS011;37186;51.394;5.454;2022-11-20T07:21:11;3.37;;;3.27;;
26820;SDS011;37186;51.394;5.454;2022-11-20T07:24:11;3.90;;;3.80;;
26820;SDS011;37186;51.394;5.454;2022-11-20T07:27:12;3.57;;;3.47;;
26820;SDS011;37186;51.394;5.454;2022-11-20T07:30:12;3.60;;;3.50;;
26820;SDS011;37186;51.394;5.454;2022-11-20T07:33:14;3.60;;;3.50;;
26820;SDS011;37186;51.394;5.454;2022-11-20T07:36:14;3.50;;;3.40;;
26820;SDS011;37186;51.394;5.454;2022-11-20T07:39:15;3.57;;;3.47;;
26820;SDS011;37186;51.394;5.454;2022-11-20T07:42:16;3.90;;;3.80;;
26820;SDS011;37186;51.394;5.454;2022-11-20T07:45:20;3.60;;;3.50;;
26820;SDS011;37186;51.394;5.454;2022-11-20T07:48:22;3.57;;;3.47;;
26820;SDS011;37186;51.394;5.454;2022-11-20T07:51:23;3.67;;;3.57;;
26820;SDS011;37186;51.394;5.454;2022-11-20T07:54:23;3.87;;;3.77;;
26820;SDS011;37186;51.394;5.454;2022-11-20T07:57:24;3.80;;;3.70;;
26820;SDS011;37186;51.394;5.454;2022-11-20T08:00:25;3.50;;;3.40;;
26820;SDS011;37186;51.394;5.454;2022-11-20T08:03:26;3.90;;;3.80;;
26820;SDS011;37186;51.394;5.454;2022-11-20T08:06:26;3.60;;;3.50;;
26820;SDS011;37186;51.394;5.454;2022-11-20T08:09:27;3.70;;;3.60;;
26820;SDS011;37186;51.394;5.454;2022-11-20T08:12:28;3.70;;;3.60;;
26820;SDS011;37186;51.394;5.454;2022-11-20T08:15:48;3.67;;;3.57;;
26820;SDS011;37186;51.394;5.454;2022-11-20T08:18:52;3.60;;;3.50;;
26820;SDS011;37186;51.394;5.454;2022-11-20T08:21:53;4.00;;;3.90;;
26820;SDS011;37186;51.394;5.454;2022-11-20T08:24:55;3.57;;;3.47;;
26820;SDS011;37186;51.394;5.454;2022-11-20T08:27:59;3.77;;;3.67;;
26820;SDS011;37186;51.394;5.454;2022-11-20T08:31:00;3.70;;;3.60;;
26820;SDS011;37186;51.394;5.454;2022-11-20T08:34:01;3.60;;;3.50;;
26820;SDS011;37186;51.394;5.454;2022-11-20T08:37:02;3.80;;;3.70;;
26820;SDS011;37186;51.394;5.454;2022-11-20T08:40:03;3.60;;;3.50;;
26820;SDS011;37186;51.394;5.454;2022-11-20T08:43:04;3.73;;;3.63;;
26820;SDS011;37186;51.394;5.454;2022-11-20T08:46:04;3.60;;;3.50;;
26820;SDS011;37186;51.394;5.454;2022-11-20T08:49:06;3.60;;;3.50;;
26820;SDS011;37186;51.394;5.454;2022-11-20T08:52:07;3.93;;;3.83;;
26820;SDS011;37186;51.394;5.454;2022-11-20T08:55:08;3.60;;;3.50;;
26820;SDS011;37186;51.394;5.454;2022-11-20T08:58:09;3.50;;;3.40;;
26820;SDS011;37186;51.394;5.454;2022-11-20T09:01:10;3.53;;;3.43;;
26820;SDS011;37186;51.394;5.454;2022-11-20T09:04:11;3.57;;;3.47;;
26820;SDS011;37186;51.394;5.454;2022-11-20T09:07:13;3.53;;;3.43;;
26820;SDS011;37186;51.394;5.454;2022-11-20T09:10:14;3.33;;;3.23;;
26820;SDS011;37186;51.394;5.454;2022-11-20T09:13:14;3.47;;;3.37;;
26820;SDS011;37186;51.394;5.454;2022-11-20T09:16:15;3.43;;;3.33;;
26820;SDS011;37186;51.394;5.454;2022-11-20T09:19:15;3.27;;;3.17;;
26820;SDS011;37186;51.394;5.454;2022-11-20T09:22:16;3.30;;;3.20;;
26820;SDS011;37186;51.394;5.454;2022-11-20T09:25:17;3.30;;;3.20;;
26820;SDS011;37186;51.394;5.454;2022-11-20T09:28:18;3.50;;;3.40;;
26820;SDS011;37186;51.394;5.454;2022-11-20T09:31:22;3.30;;;3.20;;
26820;SDS011;37186;51.394;5.454;2022-11-20T09:34:24;3.20;;;3.10;;
26820;SDS011;37186;51.394;5.454;2022-11-20T09:37:24;3.10;;;3.00;;
26820;SDS011;37186;51.394;5.454;2022-11-20T09:40:26;3.10;;;3.00;;
26820;SDS011;37186;51.394;5.454;2022-11-20T09:46:47;3.03;;;2.93;;
26820;SDS011;37186;51.394;5.454;2022-11-20T09:57:10;3.20;;;3.10;;
26820;SDS011;37186;51.394;5.454;2022-11-20T10:00:14;3.10;;;3.00;;
26820;SDS011;37186;51.394;5.454;2022-11-20T10:07:06;3.10;;;3.00;;
26820;SDS011;37186;51.394;5.454;2022-11-20T10:10:20;3.00;;;2.90;;
26820;SDS011;37186;51.394;5.454;2022-11-20T10:13:45;2.93;;;2.83;;
26820;SDS011;37186;51.394;5.454;2022-11-20T10:17:13;3.10;;;3.00;;
26820;SDS011;37186;51.394;5.454;2022-11-20T10:24:11;3.10;;;3.00;;
26820;SDS011;37186;51.394;5.454;2022-11-20T10:31:31;3.07;;;2.97;;
26820;SDS011;37186;51.394;5.454;2022-11-20T10:37:44;2.90;;;2.80;;
26820;SDS011;37186;51.394;5.454;2022-11-20T10:40:51;3.10;;;3.00;;
26820;SDS011;37186;51.394;5.454;2022-11-20T10:44:15;2.90;;;2.80;;
26820;SDS011;37186;51.394;5.454;2022-11-20T10:47:39;3.00;;;2.90;;
26820;SDS011;37186;51.394;5.454;2022-11-20T10:50:40;3.10;;;3.00;;
26820;SDS011;37186;51.394;5.454;2022-11-20T10:53:58;3.00;;;2.90;;
26820;SDS011;37186;51.394;5.454;2022-11-20T11:00:30;3.00;;;2.90;;
26820;SDS011;37186;51.394;5.454;2022-11-20T11:03:31;3.00;;;2.90;;
26820;SDS011;37186;51.394;5.454;2022-11-20T11:06:36;3.10;;;3.00;;
26820;SDS011;37186;51.394;5.454;2022-11-20T11:09:46;3.10;;;3.00;;
26820;SDS011;37186;51.394;5.454;2022-11-20T11:12:49;3.10;;;3.00;;
26820;SDS011;37186;51.394;5.454;2022-11-20T11:15:50;3.20;;;3.10;;
26820;SDS011;37186;51.394;5.454;2022-11-20T11:18:51;3.10;;;3.00;;
26820;SDS011;37186;51.394;5.454;2022-11-20T11:22:16;3.20;;;3.10;;
26820;SDS011;37186;51.394;5.454;2022-11-20T11:25:23;3.30;;;3.20;;
26820;SDS011;37186;51.394;5.454;2022-11-20T11:28:29;3.20;;;3.10;;
26820;SDS011;37186;51.394;5.454;2022-11-20T11:31:31;3.10;;;3.00;;
26820;SDS011;37186;51.394;5.454;2022-11-20T11:34:33;3.13;;;3.03;;
26820;SDS011;37186;51.394;5.454;2022-11-20T11:37:34;3.17;;;3.07;;
26820;SDS011;37186;51.394;5.454;2022-11-20T11:40:37;3.30;;;3.20;;
26820;SDS011;37186;51.394;5.454;2022-11-20T11:43:40;3.20;;;3.10;;
26820;SDS011;37186;51.394;5.454;2022-11-20T11:47:26;3.30;;;3.20;;
26820;SDS011;37186;51.394;5.454;2022-11-20T11:50:30;3.10;;;3.00;;
26820;SDS011;37186;51.394;5.454;2022-11-20T11:53:31;3.10;;;3.00;;
26820;SDS011;37186;51.394;5.454;2022-11-20T11:56:41;3.20;;;3.10;;
26820;SDS011;37186;51.394;5.454;2022-11-20T11:59:58;3.30;;;3.20;;
26820;SDS011;37186;51.394;5.454;2022-11-20T12:03:22;3.20;;;3.10;;
26820;SDS011;37186;51.394;5.454;2022-11-20T12:06:27;3.10;;;3.00;;
26820;SDS011;37186;51.394;5.454;2022-11-20T12:09:34;3.10;;;3.00;;
26820;SDS011;37186;51.394;5.454;2022-11-20T12:12:41;3.30;;;3.20;;
26820;SDS011;37186;51.394;5.454;2022-11-20T12:15:44;3.30;;;3.20;;
26820;SDS011;37186;51.394;5.454;2022-11-20T12:18:50;3.10;;;3.00;;
26820;SDS011;37186;51.394;5.454;2022-11-20T12:25:25;3.20;;;3.10;;
26820;SDS011;37186;51.394;5.454;2022-11-20T12:28:47;3.40;;;3.30;;
26820;SDS011;37186;51.394;5.454;2022-11-20T12:39:13;3.27;;;3.17;;
26820;SDS011;37186;51.394;5.454;2022-11-20T12:49:32;3.20;;;3.10;;
26820;SDS011;37186;51.394;5.454;2022-11-20T13:05:50;3.30;;;3.20;;
26820;SDS011;37186;51.394;5.454;2022-11-20T13:09:10;3.10;;;3.00;;
26820;SDS011;37186;51.394;5.454;2022-11-20T13:12:35;3.17;;;3.07;;
26820;SDS011;37186;51.394;5.454;2022-11-20T13:19:11;2.90;;;2.80;;
26820;SDS011;37186;51.394;5.454;2022-11-20T13:22:23;3.00;;;2.90;;
26820;SDS011;37186;51.394;5.454;2022-11-20T13:25:35;3.00;;;2.90;;
26820;SDS011;37186;51.394;5.454;2022-11-20T13:28:37;3.00;;;2.90;;
26820;SDS011;37186;51.394;5.454;2022-11-20T13:31:41;3.00;;;2.90;;
26820;SDS011;37186;51.394;5.454;2022-11-20T13:34:51;2.70;;;2.70;;
26820;SDS011;37186;51.394;5.454;2022-11-20T13:37:59;2.80;;;2.70;;
26820;SDS011;37186;51.394;5.454;2022-11-20T13:41:00;2.67;;;2.67;;
26820;SDS011;37186;51.394;5.454;2022-11-20T13:44:34;2.90;;;2.80;;
26820;SDS011;37186;51.394;5.454;2022-11-20T13:47:46;3.00;;;2.90;;
26820;SDS011;37186;51.394;5.454;2022-11-20T13:54:14;2.90;;;2.80;;
26820;SDS011;37186;51.394;5.454;2022-11-20T13:57:34;2.90;;;2.80;;
26820;SDS011;37186;51.394;5.454;2022-11-20T14:00:44;2.93;;;2.83;;
26820;SDS011;37186;51.394;5.454;2022-11-20T14:03:58;3.00;;;2.90;;
26820;SDS011;37186;51.394;5.454;2022-11-20T14:07:00;2.90;;;2.80;;
26820;SDS011;37186;51.394;5.454;2022-11-20T14:10:01;3.10;;;3.00;;
26820;SDS011;37186;51.394;5.454;2022-11-20T14:13:17;3.00;;;2.90;;
26820;SDS011;37186;51.394;5.454;2022-11-20T14:16:22;2.93;;;2.83;;
26820;SDS011;37186;51.394;5.454;2022-11-20T14:19:27;2.90;;;2.80;;
26820;SDS011;37186;51.394;5.454;2022-11-20T14:22:30;3.00;;;2.90;;
26820;SDS011;37186;51.394;5.454;2022-11-20T14:25:31;3.00;;;2.90;;
26820;SDS011;37186;51.394;5.454;2022-11-20T14:28:31;3.07;;;2.97;;
26820;SDS011;37186;51.394;5.454;2022-11-20T14:31:32;3.10;;;3.00;;
26820;SDS011;37186;51.394;5.454;2022-11-20T14:34:35;3.00;;;2.90;;
26820;SDS011;37186;51.394;5.454;2022-11-20T14:37:39;3.07;;;2.97;;
26820;SDS011;37186;51.394;5.454;2022-11-20T14:40:40;3.10;;;3.00;;
26820;SDS011;37186;51.394;5.454;2022-11-20T14:43:44;3.00;;;2.90;;
26820;SDS011;37186;51.394;5.454;2022-11-20T14:46:46;3.10;;;3.00;;
26820;SDS011;37186;51.394;5.454;2022-11-20T14:49:47;2.97;;;2.87;;
26820;SDS011;37186;51.394;5.454;2022-11-20T14:52:50;3.00;;;2.90;;
26820;SDS011;37186;51.394;5.454;2022-11-20T14:55:59;3.03;;;2.93;;
26820;SDS011;37186;51.394;5.454;2022-11-20T14:59:01;3.00;;;2.90;;
26820;SDS011;37186;51.394;5.454;2022-11-20T15:02:19;3.13;;;3.03;;
26820;SDS011;37186;51.394;5.454;2022-11-20T15:05:22;3.10;;;3.00;;
26820;SDS011;37186;51.394;5.454;2022-11-20T15:08:51;3.00;;;2.90;;
26820;SDS011;37186;51.394;5.454;2022-11-20T15:11:53;2.73;;;2.70;;
26820;SDS011;37186;51.394;5.454;2022-11-20T15:14:58;3.00;;;2.90;;
26820;SDS011;37186;51.394;5.454;2022-11-20T15:18:00;2.90;;;2.80;;
26820;SDS011;37186;51.394;5.454;2022-11-20T15:21:01;2.83;;;2.77;;
26820;SDS011;37186;51.394;5.454;2022-11-20T15:24:04;3.10;;;3.00;;
26820;SDS011;37186;51.394;5.454;2022-11-20T15:27:09;3.10;;;3.00;;
26820;SDS011;37186;51.394;5.454;2022-11-20T15:30:14;3.20;;;3.10;;
26820;SDS011;37186;51.394;5.454;2022-11-20T15:33:17;3.10;;;3.00;;
26820;SDS011;37186;51.394;5.454;2022-11-20T15:36:18;3.00;;;2.90;;
26820;SDS011;37186;51.394;5.454;2022-11-20T15:39:18;3.17;;;3.07;;
26820;SDS011;37186;51.394;5.454;2022-11-20T15:42:19;2.90;;;2.80;;
26820;SDS011;37186;51.394;5.454;2022-11-20T15:45:19;3.03;;;2.93;;
26820;SDS011;37186;51.394;5.454;2022-11-20T15:48:20;3.10;;;3.00;;
26820;SDS011;37186;51.394;5.454;2022-11-20T15:51:24;3.03;;;2.93;;
26820;SDS011;37186;51.394;5.454;2022-11-20T15:54:28;3.10;;;3.00;;
26820;SDS011;37186;51.394;5.454;2022-11-20T15:57:29;3.13;;;3.03;;
26820;SDS011;37186;51.394;5.454;2022-11-20T16:00:29;3.10;;;3.00;;
26820;SDS011;37186;51.394;5.454;2022-11-20T16:03:30;3.50;;;3.40;;
26820;SDS011;37186;51.394;5.454;2022-11-20T16:06:31;3.50;;;3.40;;
26820;SDS011;37186;51.394;5.454;2022-11-20T16:09:31;3.53;;;3.43;;
26820;SDS011;37186;51.394;5.454;2022-11-20T16:12:32;3.43;;;3.33;;
26820;SDS011;37186;51.394;5.454;2022-11-20T16:15:52;3.30;;;3.20;;
26820;SDS011;37186;51.394;5.454;2022-11-20T16:18:56;3.43;;;3.33;;
26820;SDS011;37186;51.394;5.454;2022-11-20T16:21:57;3.37;;;3.27;;
26820;SDS011;37186;51.394;5.454;2022-11-20T16:25:00;3.30;;;3.20;;
26820;SDS011;37186;51.394;5.454;2022-11-20T16:28:01;3.30;;;3.20;;
26820;SDS011;37186;51.394;5.454;2022-11-20T16:31:14;3.30;;;3.20;;
26820;SDS011;37186;51.394;5.454;2022-11-20T16:34:17;3.40;;;3.30;;
26820;SDS011;37186;51.394;5.454;2022-11-20T16:37:18;3.60;;;3.50;;
26820;SDS011;37186;51.394;5.454;2022-11-20T16:40:19;3.30;;;3.20;;
26820;SDS011;37186;51.394;5.454;2022-11-20T16:43:19;3.43;;;3.33;;
26820;SDS011;37186;51.394;5.454;2022-11-20T16:46:20;3.50;;;3.40;;
26820;SDS011;37186;51.394;5.454;2022-11-20T16:49:22;3.50;;;3.40;;
26820;SDS011;37186;51.394;5.454;2022-11-20T16:52:23;3.47;;;3.37;;
26820;SDS011;37186;51.394;5.454;2022-11-20T16:55:24;3.70;;;3.60;;
26820;SDS011;37186;51.394;5.454;2022-11-20T16:58:24;3.60;;;3.50;;
26820;SDS011;37186;51.394;5.454;2022-11-20T17:01:25;3.60;;;3.50;;
26820;SDS011;37186;51.394;5.454;2022-11-20T17:04:27;3.60;;;3.50;;
26820;SDS011;37186;51.394;5.454;2022-11-20T17:07:28;3.57;;;3.47;;
26820;SDS011;37186;51.394;5.454;2022-11-20T17:10:28;3.50;;;3.40;;
26820;SDS011;37186;51.394;5.454;2022-11-20T17:13:29;3.73;;;3.63;;
26820;SDS011;37186;51.394;5.454;2022-11-20T17:16:29;3.90;;;3.80;;
26820;SDS011;37186;51.394;5.454;2022-11-20T17:19:30;3.60;;;3.50;;
26820;SDS011;37186;51.394;5.454;2022-11-20T17:22:31;3.70;;;3.60;;
26820;SDS011;37186;51.394;5.454;2022-11-20T17:25:31;3.73;;;3.63;;
26820;SDS011;37186;51.394;5.454;2022-11-20T17:28:33;3.90;;;3.80;;
26820;SDS011;37186;51.394;5.454;2022-11-20T17:31:34;3.90;;;3.80;;
26820;SDS011;37186;51.394;5.454;2022-11-20T17:34:37;3.50;;;3.40;;
26820;SDS011;37186;51.394;5.454;2022-11-20T17:37:37;3.70;;;3.60;;
26820;SDS011;37186;51.394;5.454;2022-11-20T17:40:38;3.63;;;3.53;;
26820;SDS011;37186;51.394;5.454;2022-11-20T17:43:39;3.50;;;3.40;;
26820;SDS011;37186;51.394;5.454;2022-11-20T17:46:41;3.90;;;3.80;;
26820;SDS011;37186;51.394;5.454;2022-11-20T17:49:42;3.73;;;3.63;;
26820;SDS011;37186;51.394;5.454;2022-11-20T17:52:42;3.80;;;3.70;;
26820;SDS011;37186;51.394;5.454;2022-11-20T17:55:43;3.50;;;3.40;;
26820;SDS011;37186;51.394;5.454;2022-11-20T17:59:06;3.43;;;3.33;;
26820;SDS011;37186;51.394;5.454;2022-11-20T18:02:08;3.20;;;3.10;;
26820;SDS011;37186;51.394;5.454;2022-11-20T18:05:12;3.30;;;3.20;;
26820;SDS011;37186;51.394;5.454;2022-11-20T18:08:13;3.00;;;2.90;;
26820;SDS011;37186;51.394;5.454;2022-11-20T18:14:15;2.90;;;2.80;;
26820;SDS011;37186;51.394;5.454;2022-11-20T18:17:27;3.10;;;3.00;;
26820;SDS011;37186;51.394;5.454;2022-11-20T18:20:28;3.17;;;3.07;;
26820;SDS011;37186;51.394;5.454;2022-11-20T18:23:28;3.20;;;3.10;;
26820;SDS011;37186;51.394;5.454;2022-11-20T18:26:29;3.10;;;3.00;;
26820;SDS011;37186;51.394;5.454;2022-11-20T18:29:30;3.30;;;3.20;;
26820;SDS011;37186;51.394;5.454;2022-11-20T18:32:31;3.30;;;3.20;;
26820;SDS011;37186;51.394;5.454;2022-11-20T18:35:33;3.60;;;3.50;;
26820;SDS011;37186;51.394;5.454;2022-11-20T18:38:34;3.43;;;3.33;;
26820;SDS011;37186;51.394;5.454;2022-11-20T18:41:35;3.80;;;3.70;;
26820;SDS011;37186;51.394;5.454;2022-11-20T18:44:54;3.70;;;3.60;;
26820;SDS011;37186;51.394;5.454;2022-11-20T18:47:54;3.63;;;3.53;;
26820;SDS011;37186;51.394;5.454;2022-11-20T18:51:02;3.83;;;3.73;;
26820;SDS011;37186;51.394;5.454;2022-11-20T18:54:04;3.53;;;3.43;;
26820;SDS011;37186;51.394;5.454;2022-11-20T18:57:05;3.80;;;3.70;;
26820;SDS011;37186;51.394;5.454;2022-11-20T19:00:09;3.87;;;3.77;;
26820;SDS011;37186;51.394;5.454;2022-11-20T19:03:10;3.77;;;3.67;;
26820;SDS011;37186;51.394;5.454;2022-11-20T19:06:13;3.83;;;3.73;;
26820;SDS011;37186;51.394;5.454;2022-11-20T19:09:14;3.87;;;3.77;;
26820;SDS011;37186;51.394;5.454;2022-11-20T19:12:15;3.70;;;3.60;;
26820;SDS011;37186;51.394;5.454;2022-11-20T19:15:16;3.63;;;3.53;;
26820;SDS011;37186;51.394;5.454;2022-11-20T19:18:17;3.80;;;3.70;;
26820;SDS011;37186;51.394;5.454;2022-11-20T19:21:18;3.50;;;3.40;;
26820;SDS011;37186;51.394;5.454;2022-11-20T19:24:21;3.53;;;3.43;;
26820;SDS011;37186;51.394;5.454;2022-11-20T19:27:22;3.63;;;3.53;;
26820;SDS011;37186;51.394;5.454;2022-11-20T19:30:22;3.43;;;3.33;;
26820;SDS011;37186;51.394;5.454;2022-11-20T19:33:23;3.63;;;3.53;;
26820;SDS011;37186;51.394;5.454;2022-11-20T19:36:24;3.53;;;3.43;;